Time;durP1;ratioP1;P1;durP2;ratioP2;P2;SDS_P1;SDS_P2;PMS_P1;PMS_P2;Temp;Humidity;BMP_temperature;BMP_pressure;BME280_temperature;BME280_humidity;BME280_pressure;Samples;Min_cycle;Max_cycle;Signal;HPM_P1;HPM_P2
2021/08/12 00:00:55;;;;;;;6.70;6.20;;;22.70;72.60;;;;;;5044142;28;20723;-87
2021/08/12 00:03:21;;;;;;;7.97;6.68;;;22.60;72.90;;;;;;5042955;28;20192;-86
2021/08/12 00:05:46;;;;;;;7.00;6.50;;;22.20;75.30;;;;;;5044181;28;20216;-87
2021/08/12 00:08:12;;;;;;;6.65;6.00;;;22.00;75.10;;;;;;5044074;28;20181;-86
2021/08/12 00:10:38;;;;;;;7.35;6.65;;;21.90;75.50;;;;;;5042750;28;20692;-87
2021/08/12 00:13:03;;;;;;;7.30;6.50;;;21.80;75.70;;;;;;5044398;28;20191;-87
2021/08/12 00:15:29;;;;;;;7.03;6.40;;;21.80;75.50;;;;;;5043078;28;20181;-87
2021/08/12 00:17:55;;;;;;;6.50;6.00;;;21.80;76.10;;;;;;5042577;28;20213;-86
2021/08/12 00:20:21;;;;;;;7.00;6.40;;;21.90;75.70;;;;;;5043330;28;20235;-87
2021/08/12 00:22:46;;;;;;;7.57;6.65;;;22.10;74.90;;;;;;5044518;28;20668;-86
2021/08/12 00:25:12;;;;;;;7.35;5.97;;;22.00;74.50;;;;;;5045158;28;20192;-86
2021/08/12 00:27:38;;;;;;;6.55;6.05;;;21.80;75.30;;;;;;5044815;28;20185;-86
2021/08/12 00:30:05;;;;;;;7.88;5.97;;;21.80;74.60;;;;;;5044130;28;20188;-86
2021/08/12 00:32:30;;;;;;;7.20;6.50;;;21.90;74.50;;;;;;5043871;28;20556;-88
2021/08/12 00:34:56;;;;;;;7.78;6.32;;;22.00;74.00;;;;;;5044171;28;20181;-86
2021/08/12 00:37:22;;;;;;;7.00;6.40;;;22.10;73.40;;;;;;5044762;28;20220;-86
2021/08/12 00:39:47;;;;;;;7.22;6.25;;;22.20;73.00;;;;;;5044451;28;20193;-86
2021/08/12 00:42:14;;;;;;;7.38;6.65;;;21.80;74.20;;;;;;5044487;28;20207;-87
2021/08/12 00:44:39;;;;;;;7.10;6.47;;;21.50;76.00;;;;;;5043550;28;20177;-86
2021/08/12 00:47:05;;;;;;;7.47;6.75;;;21.50;76.70;;;;;;5045651;28;20239;-87
2021/08/12 00:49:31;;;;;;;6.57;6.07;;;21.50;75.40;;;;;;5044777;28;20173;-88
2021/08/12 00:51:57;;;;;;;6.78;6.28;;;21.60;75.50;;;;;;5045483;28;20216;-86
2021/08/12 00:54:23;;;;;;;7.22;6.55;;;21.60;75.50;;;;;;5044545;28;20200;-86
2021/08/12 00:56:49;;;;;;;7.10;6.50;;;21.50;76.20;;;;;;5044526;28;20224;-86
2021/08/12 00:59:15;;;;;;;6.43;5.93;;;21.50;76.30;;;;;;5043404;28;20216;-85
2021/08/12 01:01:41;;;;;;;6.90;6.30;;;21.60;75.50;;;;;;5043403;28;20608;-86
2021/08/12 01:04:07;;;;;;;6.70;6.10;;;21.60;74.70;;;;;;5043278;28;20173;-87
2021/08/12 01:07:03;;;;;;;7.43;6.68;;;21.30;75.70;;;;;;5041777;28;20260;-86
2021/08/12 01:09:53;;;;;;;6.55;5.88;;;20.90;77.80;;;;;;5043635;28;20163;-86
2021/08/12 01:12:35;;;;;;;6.68;6.07;;;20.90;77.80;;;;;;5043181;28;20222;-86
2021/08/12 01:15:06;;;;;;;6.70;6.10;;;21.10;77.20;;;;;;5043449;28;20635;-86
2021/08/12 01:17:40;;;;;;;7.00;6.30;;;21.20;76.30;;;;;;5043436;28;20236;-86
2021/08/12 01:20:06;;;;;;;6.22;5.72;;;21.20;76.00;;;;;;5043683;28;20343;-87
2021/08/12 01:22:44;;;;;;;6.53;5.90;;;21.30;76.10;;;;;;5043162;28;20186;-87
2021/08/12 01:25:17;;;;;;;6.38;5.78;;;21.50;75.40;;;;;;5044665;28;20161;-87
2021/08/12 01:27:46;;;;;;;6.68;5.95;;;21.60;74.70;;;;;;5043334;28;20173;-87
2021/08/12 01:30:17;;;;;;;7.70;6.35;;;21.60;73.70;;;;;;5044785;28;20187;-88
2021/08/12 01:32:43;;;;;;;7.38;6.32;;;21.60;74.40;;;;;;5057118;28;20177;-89
2021/08/12 01:35:17;;;;;;;11.27;5.88;;;21.60;73.80;;;;;;5058145;28;20157;-88
2021/08/12 01:37:48;;;;;;;6.35;5.75;;;21.70;73.80;;;;;;5057502;28;20212;-87
2021/08/12 01:40:16;;;;;;;5.90;5.40;;;21.80;73.70;;;;;;5057782;28;20175;-88
2021/08/12 01:42:44;;;;;;;6.95;6.30;;;21.60;73.00;;;;;;5056543;28;20215;-88
2021/08/12 01:45:13;;;;;;;6.25;5.68;;;21.50;73.70;;;;;;5057697;28;20165;-86
2021/08/12 01:47:41;;;;;;;7.10;6.30;;;21.40;74.70;;;;;;5053158;28;20185;-86
2021/08/12 01:50:08;;;;;;;6.70;6.10;;;21.30;75.60;;;;;;5046461;28;20200;-87
2021/08/12 01:52:37;;;;;;;6.65;6.05;;;21.30;74.00;;;;;;5043023;28;20229;-86
2021/08/12 01:55:05;;;;;;;6.50;6.00;;;21.10;75.90;;;;;;5043866;28;20203;-86
2021/08/12 01:57:31;;;;;;;6.65;5.70;;;21.10;75.70;;;;;;5042766;28;20192;-86
2021/08/12 01:59:58;;;;;;;6.88;6.28;;;21.20;75.50;;;;;;5041918;28;20177;-86
2021/08/12 02:02:24;;;;;;;6.47;5.97;;;21.30;75.20;;;;;;5041938;28;20201;-86
2021/08/12 02:04:52;;;;;;;6.93;6.18;;;21.30;74.60;;;;;;5042140;28;20673;-87
2021/08/12 02:07:18;;;;;;;6.22;5.63;;;21.30;74.60;;;;;;5042305;28;20207;-87
2021/08/12 02:09:43;;;;;;;6.82;6.18;;;21.30;74.50;;;;;;5040449;28;20191;-86
2021/08/12 02:12:10;;;;;;;6.60;6.10;;;21.30;74.40;;;;;;5042016;28;20296;-86
2021/08/12 02:14:37;;;;;;;6.35;5.85;;;21.20;74.60;;;;;;5041825;28;20212;-86
2021/08/12 02:17:04;;;;;;;6.40;5.90;;;21.30;74.50;;;;;;5041570;28;20683;-87
2021/08/12 02:19:30;;;;;;;5.95;5.47;;;21.30;74.90;;;;;;5041610;28;20223;-87
2021/08/12 02:22:19;;;;;;;6.32;5.72;;;21.30;73.90;;;;;;5041605;28;20205;-86
2021/08/12 02:24:59;;;;;;;6.47;5.85;;;21.40;73.80;;;;;;5041505;28;20223;-86
2021/08/12 02:27:26;;;;;;;6.75;6.15;;;21.40;73.40;;;;;;5031840;28;20380;-86
2021/08/12 02:29:53;;;;;;;6.10;5.60;;;21.20;73.40;;;;;;5022083;28;20272;-86
2021/08/12 02:32:23;;;;;;;6.15;5.55;;;21.10;73.70;;;;;;5021594;28;20208;-85
2021/08/12 02:34:51;;;;;;;6.88;6.18;;;21.10;73.90;;;;;;5021988;28;20225;-86
2021/08/12 02:37:18;;;;;;;5.93;5.43;;;20.80;74.30;;;;;;5021149;28;20215;-86
2021/08/12 02:39:46;;;;;;;5.53;5.10;;;21.00;74.70;;;;;;5021989;28;20178;-86
2021/08/12 02:42:13;;;;;;;5.97;5.30;;;20.90;74.60;;;;;;5021681;28;20834;-86
2021/08/12 02:44:41;;;;;;;6.57;5.75;;;21.10;74.40;;;;;;5020269;28;20185;-86
2021/08/12 02:47:08;;;;;;;6.22;5.63;;;21.10;74.00;;;;;;5022875;28;20174;-86
2021/08/12 02:49:39;;;;;;;6.35;5.50;;;21.10;73.70;;;;;;5040344;28;20180;-86
2021/08/12 02:52:06;;;;;;;6.15;5.30;;;20.90;74.30;;;;;;5041296;28;20190;-86
2021/08/12 02:54:34;;;;;;;6.55;5.57;;;21.00;74.00;;;;;;5041305;28;20655;-86
2021/08/12 02:57:00;;;;;;;7.07;5.40;;;21.00;73.70;;;;;;5039816;28;20197;-86
2021/08/12 02:59:26;;;;;;;8.30;5.63;;;20.90;73.40;;;;;;5041250;28;20627;-85
2021/08/12 03:01:53;;;;;;;7.13;6.15;;;20.90;73.70;;;;;;5040840;28;20195;-86
2021/08/12 03:04:20;;;;;;;6.32;5.72;;;20.80;74.20;;;;;;5041570;28;20183;-86
2021/08/12 03:06:48;;;;;;;7.20;6.07;;;20.80;74.60;;;;;;5040939;28;20265;-86
2021/08/12 03:09:16;;;;;;;5.82;5.22;;;20.80;74.60;;;;;;5041036;28;20254;-85
2021/08/12 03:11:43;;;;;;;6.80;5.53;;;20.70;74.80;;;;;;5041517;28;20540;-86
2021/08/12 03:14:09;;;;;;;6.00;5.32;;;20.40;75.20;;;;;;5041174;28;20267;-86
2021/08/12 03:16:37;;;;;;;5.57;5.05;;;20.30;76.50;;;;;;5041033;28;20189;-86
2021/08/12 03:19:03;;;;;;;6.15;5.53;;;20.40;76.40;;;;;;5039372;28;20762;-86
2021/08/12 03:21:29;;;;;;;6.68;5.78;;;20.50;76.00;;;;;;5040144;28;20204;-85
2021/08/12 03:24:01;;;;;;;5.85;5.35;;;20.60;75.00;;;;;;5039766;28;20196;-86
2021/08/12 03:26:27;;;;;;;5.88;5.38;;;20.60;75.00;;;;;;5040135;28;20505;-85
2021/08/12 03:28:53;;;;;;;5.30;4.90;;;20.70;74.90;;;;;;5040800;28;20200;-86
2021/08/12 03:31:18;;;;;;;6.18;5.55;;;20.70;74.30;;;;;;5040825;28;20196;-86
2021/08/12 03:33:44;;;;;;;5.93;5.43;;;20.70;73.80;;;;;;5040679;28;20192;-86
2021/08/12 03:36:10;;;;;;;6.03;5.53;;;20.60;73.90;;;;;;5041259;28;20183;-87
2021/08/12 03:38:35;;;;;;;5.68;5.18;;;20.60;74.30;;;;;;5073179;28;20230;-85
2021/08/12 03:41:01;;;;;;;6.55;5.18;;;20.60;74.40;;;;;;5041747;28;20279;-85
2021/08/12 03:43:27;;;;;;;6.22;5.47;;;20.50;75.00;;;;;;5040910;28;20342;-85
2021/08/12 03:45:53;;;;;;;5.60;5.00;;;20.50;74.60;;;;;;5041051;28;20260;-86
2021/08/12 03:48:19;;;;;;;6.05;5.55;;;20.50;74.80;;;;;;5040446;28;20188;-86
2021/08/12 03:50:44;;;;;;;5.43;4.93;;;20.50;75.00;;;;;;5040355;28;20204;-86
2021/08/12 03:53:10;;;;;;;5.57;5.18;;;20.40;75.40;;;;;;5040552;28;20655;-86
2021/08/12 03:55:36;;;;;;;6.05;5.47;;;20.50;75.00;;;;;;5039219;28;20641;-86
2021/08/12 03:58:01;;;;;;;6.63;5.18;;;20.60;74.70;;;;;;5040944;28;20345;-86
2021/08/12 04:00:27;;;;;;;5.72;5.22;;;20.50;74.60;;;;;;5038862;28;20255;-86
2021/08/12 04:02:53;;;;;;;8.30;6.18;;;20.30;75.20;;;;;;5040269;28;20179;-86
2021/08/12 04:05:18;;;;;;;8.18;6.50;;;20.20;76.40;;;;;;5040600;28;20182;-86
2021/08/12 04:07:44;;;;;;;9.70;6.15;;;20.10;77.10;;;;;;5040744;28;20181;-86
2021/08/12 04:10:10;;;;;;;6.82;6.13;;;19.90;78.70;;;;;;5040094;28;20182;-85
2021/08/12 04:12:36;;;;;;;6.43;5.93;;;19.90;78.80;;;;;;5023007;28;20294;-85
2021/08/12 04:15:02;;;;;;;8.15;6.38;;;19.90;78.00;;;;;;5039230;28;20208;-86
2021/08/12 04:17:28;;;;;;;9.20;5.95;;;20.10;77.60;;;;;;5041189;28;20280;-86
2021/08/12 04:19:54;;;;;;;8.65;5.28;;;20.20;76.70;;;;;;5040381;28;20177;-86
2021/08/12 04:22:19;;;;;;;7.18;5.63;;;20.10;77.00;;;;;;5040856;28;20194;-85
2021/08/12 04:24:45;;;;;;;5.53;5.03;;;20.20;76.20;;;;;;5040223;28;20203;-85
2021/08/12 04:27:13;;;;;;;8.50;5.60;;;20.20;76.50;;;;;;5039525;28;20201;-86
2021/08/12 04:29:40;;;;;;;6.20;5.50;;;20.20;76.30;;;;;;5040303;28;20200;-86
2021/08/12 04:32:06;;;;;;;6.10;5.50;;;20.10;76.90;;;;;;5040989;28;20198;-86
2021/08/12 04:34:31;;;;;;;5.68;5.10;;;20.00;76.60;;;;;;5038342;28;20177;-86
2021/08/12 04:36:57;;;;;;;7.63;6.00;;;20.10;76.70;;;;;;5023162;28;20584;-87
2021/08/12 04:39:23;;;;;;;6.80;5.72;;;20.10;76.70;;;;;;5028362;28;20205;-85
2021/08/12 04:41:48;;;;;;;6.43;5.28;;;20.00;76.50;;;;;;5044032;28;20284;-85
2021/08/12 04:44:14;;;;;;;6.47;5.05;;;20.00;76.40;;;;;;5043945;28;20269;-85
2021/08/12 04:46:40;;;;;;;6.53;5.25;;;20.00;76.90;;;;;;5044151;28;20204;-85
2021/08/12 04:49:06;;;;;;;5.90;5.28;;;20.00;77.10;;;;;;5044202;28;20260;-86
2021/08/12 04:51:33;;;;;;;5.57;5.07;;;20.00;78.40;;;;;;5043668;28;20214;-85
2021/08/12 04:53:58;;;;;;;5.30;4.90;;;20.00;78.10;;;;;;5044123;28;20181;-85
2021/08/12 04:56:24;;;;;;;5.22;4.60;;;20.10;77.80;;;;;;5043513;28;20197;-85
2021/08/12 04:58:50;;;;;;;18.05;6.88;;;20.10;77.40;;;;;;5043279;28;20198;-85
2021/08/12 05:01:20;;;;;;;6.22;5.45;;;20.20;77.30;;;;;;5043255;28;20287;-85
2021/08/12 05:03:45;;;;;;;23.65;7.65;;;20.20;77.40;;;;;;5041290;28;20188;-86
2021/08/12 05:06:15;;;;;;;7.90;6.20;;;20.20;77.80;;;;;;5041643;28;20199;-85
2021/08/12 05:08:43;;;;;;;7.60;5.75;;;20.20;78.80;;;;;;5043564;28;20184;-85
2021/08/12 05:11:10;;;;;;;7.05;5.75;;;20.20;78.70;;;;;;5043157;28;20200;-85
2021/08/12 05:13:36;;;;;;;6.25;5.60;;;20.20;78.60;;;;;;5043076;28;20190;-86
2021/08/12 05:16:02;;;;;;;7.85;5.68;;;20.20;78.80;;;;;;5041649;28;20686;-87
2021/08/12 05:18:28;;;;;;;6.07;5.40;;;20.20;78.40;;;;;;5042944;28;20230;-87
2021/08/12 05:20:54;;;;;;;6.38;5.85;;;20.20;78.90;;;;;;5047397;28;20334;-87
2021/08/12 05:23:20;;;;;;;7.22;6.50;;;20.30;79.20;;;;;;5055832;28;20190;-86
2021/08/12 05:25:45;;;;;;;7.25;6.55;;;20.20;79.50;;;;;;5062466;28;20539;-87
2021/08/12 05:28:12;;;;;;;6.80;6.20;;;20.30;80.60;;;;;;5054457;28;20206;-86
2021/08/12 05:30:38;;;;;;;7.75;7.00;;;20.20;80.70;;;;;;5060986;28;20212;-86
2021/08/12 05:33:03;;;;;;;6.60;6.10;;;20.20;80.70;;;;;;5060192;28;20182;-86
2021/08/12 05:35:29;;;;;;;6.82;6.13;;;20.30;80.20;;;;;;5061192;28;20187;-86
2021/08/12 05:37:55;;;;;;;7.88;6.25;;;20.50;79.90;;;;;;5061056;28;20564;-87
2021/08/12 05:40:20;;;;;;;12.98;8.38;;;20.50;78.70;;;;;;5051852;28;20243;-87
2021/08/12 05:42:47;;;;;;;8.50;6.28;;;20.50;80.00;;;;;;5041578;28;20585;-86
2021/08/12 05:45:13;;;;;;;6.25;5.60;;;20.40;80.30;;;;;;5045787;28;20184;-86
2021/08/12 05:47:39;;;;;;;7.13;6.20;;;20.40;79.50;;;;;;5043004;28;20220;-86
2021/08/12 05:50:05;;;;;;;7.22;6.50;;;20.40;79.60;;;;;;5041519;28;20185;-85
2021/08/12 05:52:31;;;;;;;8.23;6.20;;;20.20;80.80;;;;;;5041066;28;20263;-86
2021/08/12 05:54:57;;;;;;;10.00;5.65;;;20.10;81.40;;;;;;5055052;28;20256;-86
2021/08/12 05:57:23;;;;;;;6.72;5.65;;;20.10;82.00;;;;;;5062999;28;20602;-84
2021/08/12 05:59:49;;;;;;;7.53;5.75;;;20.20;81.60;;;;;;5060544;28;20186;-84
2021/08/12 06:02:14;;;;;;;7.05;5.72;;;20.20;81.80;;;;;;5040716;28;20204;-84
2021/08/12 06:04:40;;;;;;;6.80;6.18;;;20.30;82.20;;;;;;5042294;28;20197;-86
2021/08/12 06:07:06;;;;;;;9.80;6.82;;;20.40;82.00;;;;;;5042913;28;20180;-86
2021/08/12 06:09:31;;;;;;;8.05;6.88;;;20.50;81.50;;;;;;5041589;28;20178;-86
2021/08/12 06:11:57;;;;;;;7.50;6.90;;;20.60;81.20;;;;;;5041139;28;20200;-86
2021/08/12 06:14:23;;;;;;;7.60;6.90;;;20.70;81.00;;;;;;5040567;28;20177;-86
2021/08/12 06:16:48;;;;;;;6.82;6.20;;;20.70;80.90;;;;;;5040031;28;20180;-87
2021/08/12 06:19:14;;;;;;;7.35;6.75;;;20.70;81.10;;;;;;5039153;28;20302;-87
2021/08/12 06:21:40;;;;;;;7.35;6.75;;;20.70;81.30;;;;;;5038886;28;20201;-86
2021/08/12 06:24:05;;;;;;;7.70;6.97;;;20.70;81.90;;;;;;5039258;28;20675;-86
2021/08/12 06:26:31;;;;;;;7.60;6.90;;;20.70;81.80;;;;;;5040250;28;20188;-87
2021/08/12 06:28:57;;;;;;;7.57;6.97;;;20.70;82.10;;;;;;5039874;28;20199;-87
2021/08/12 06:31:22;;;;;;;8.23;7.43;;;20.90;81.60;;;;;;5036540;28;20201;-85
2021/08/12 06:33:48;;;;;;;8.02;7.30;;;20.90;81.40;;;;;;5038572;28;20238;-88
2021/08/12 06:36:14;;;;;;;8.30;7.60;;;20.80;81.50;;;;;;5036573;28;20193;-87
2021/08/12 06:38:39;;;;;;;9.68;8.05;;;20.90;81.70;;;;;;5037505;28;20216;-88
2021/08/12 06:41:05;;;;;;;7.68;6.95;;;20.80;82.00;;;;;;5037075;28;20243;-87
2021/08/12 06:43:31;;;;;;;9.32;8.52;;;20.80;81.30;;;;;;5036484;28;20594;-86
2021/08/12 06:45:56;;;;;;;9.43;8.05;;;21.00;81.30;;;;;;5037870;28;20548;-84
2021/08/12 06:48:22;;;;;;;10.52;8.32;;;21.10;81.00;;;;;;5033641;28;20196;-86
2021/08/12 06:50:48;;;;;;;8.60;7.80;;;21.30;80.30;;;;;;5037868;28;20688;-85
2021/08/12 06:53:13;;;;;;;8.45;7.65;;;21.40;80.00;;;;;;5032794;28;20660;-86
2021/08/12 06:55:39;;;;;;;8.60;7.72;;;21.40;80.40;;;;;;5034896;28;20281;-85
2021/08/12 06:58:05;;;;;;;8.95;7.45;;;21.30;80.70;;;;;;5040442;28;20236;-87
2021/08/12 07:00:31;;;;;;;9.00;8.10;;;21.30;80.80;;;;;;5039096;28;20212;-85
2021/08/12 07:02:56;;;;;;;8.90;8.10;;;21.40;80.40;;;;;;5039119;28;20184;-85
2021/08/12 07:05:22;;;;;;;10.23;8.25;;;21.50;80.80;;;;;;5038863;28;20181;-85
2021/08/12 07:07:48;;;;;;;9.32;7.70;;;21.50;80.90;;;;;;5041229;28;20211;-85
2021/08/12 07:10:14;;;;;;;8.82;8.02;;;21.30;82.00;;;;;;5038535;28;20209;-85
2021/08/12 07:12:39;;;;;;;8.02;7.32;;;21.40;81.60;;;;;;5040725;28;20176;-85
2021/08/12 07:15:06;;;;;;;9.75;7.18;;;21.40;81.00;;;;;;5040990;28;20199;-84
2021/08/12 07:17:33;;;;;;;8.10;7.25;;;21.50;80.30;;;;;;5040933;28;20201;-85
2021/08/12 07:19:59;;;;;;;11.05;8.70;;;21.70;79.70;;;;;;5039272;28;20601;-85
2021/08/12 07:22:25;;;;;;;8.32;7.43;;;21.90;77.70;;;;;;5040114;28;20219;-85
2021/08/12 07:24:51;;;;;;;7.88;7.18;;;21.90;76.90;;;;;;5041166;28;20173;-85
2021/08/12 07:27:16;;;;;;;8.50;7.60;;;22.00;77.00;;;;;;5039607;28;20189;-85
2021/08/12 07:29:42;;;;;;;10.38;8.10;;;22.00;76.60;;;;;;5038610;28;20185;-86
2021/08/12 07:32:08;;;;;;;9.93;8.52;;;22.10;76.60;;;;;;5036378;28;20229;-85
2021/08/12 07:34:34;;;;;;;9.57;8.63;;;22.20;76.20;;;;;;5057146;28;20185;-86
2021/08/12 07:37:00;;;;;;;8.88;8.07;;;22.20;76.60;;;;;;5039271;28;20678;-85
2021/08/12 07:39:26;;;;;;;9.40;8.10;;;22.10;76.70;;;;;;5041917;28;20215;-85
2021/08/12 07:41:52;;;;;;;10.35;9.48;;;22.20;77.00;;;;;;5038679;28;20300;-85
2021/08/12 07:44:18;;;;;;;9.18;8.27;;;22.30;77.30;;;;;;5035978;28;20629;-85
2021/08/12 07:46:43;;;;;;;9.90;8.75;;;22.20;78.10;;;;;;5039447;28;20193;-83
2021/08/12 07:49:09;;;;;;;9.55;8.75;;;22.50;76.70;;;;;;5041385;28;20197;-82
2021/08/12 07:51:35;;;;;;;10.43;8.85;;;22.60;74.80;;;;;;5039109;28;20204;-85
2021/08/12 07:54:00;;;;;;;9.30;8.50;;;22.70;75.40;;;;;;5038941;28;20197;-84
2021/08/12 07:56:26;;;;;;;9.25;8.25;;;22.80;75.20;;;;;;5039192;28;20201;-85
2021/08/12 07:58:52;;;;;;;8.95;7.95;;;22.80;74.40;;;;;;5038315;28;20299;-86
2021/08/12 08:01:19;;;;;;;15.30;8.50;;;22.80;74.40;;;;;;5037569;28;20209;-86
2021/08/12 08:03:46;;;;;;;10.13;9.07;;;22.80;74.80;;;;;;5039103;28;20177;-86
2021/08/12 08:06:12;;;;;;;11.55;8.70;;;22.90;75.60;;;;;;5038434;28;20673;-85
2021/08/12 08:08:37;;;;;;;9.60;8.75;;;22.80;74.20;;;;;;5041266;28;20225;-86
2021/08/12 08:11:04;;;;;;;9.52;8.65;;;22.90;73.50;;;;;;5042873;28;20568;-85
2021/08/12 08:13:31;;;;;;;9.45;8.60;;;23.10;71.40;;;;;;5038121;28;20408;-84
2021/08/12 08:15:57;;;;;;;9.70;8.60;;;23.30;71.20;;;;;;5041374;28;20367;-86
2021/08/12 08:18:24;;;;;;;10.32;8.45;;;23.50;71.80;;;;;;5042099;28;20459;-85
2021/08/12 08:20:50;;;;;;;9.65;8.75;;;23.70;70.60;;;;;;5041887;28;20197;-86
2021/08/12 08:23:16;;;;;;;9.38;8.48;;;23.90;71.00;;;;;;5040251;28;20216;-85
2021/08/12 08:25:42;;;;;;;10.18;8.98;;;24.00;69.60;;;;;;5041693;28;20185;-86
2021/08/12 08:28:08;;;;;;;9.50;8.55;;;24.10;70.10;;;;;;5040724;28;20193;-85
2021/08/12 08:30:35;;;;;;;10.40;8.65;;;24.10;69.70;;;;;;5041405;28;20211;-85
2021/08/12 08:33:02;;;;;;;9.63;7.95;;;24.20;68.90;;;;;;5042272;28;20192;-86
2021/08/12 08:35:28;;;;;;;8.52;7.68;;;24.20;68.10;;;;;;5042985;28;20216;-86
2021/08/12 08:37:58;;;;;;;11.93;8.23;;;24.20;69.30;;;;;;5040077;28;20197;-86
2021/08/12 08:40:24;;;;;;;9.90;8.25;;;24.10;70.90;;;;;;5042756;28;20194;-86
2021/08/12 08:42:52;;;;;;;8.95;8.15;;;24.30;67.50;;;;;;5040674;28;20184;-86
2021/08/12 08:45:23;;;;;;;9.40;8.60;;;24.60;68.40;;;;;;5041280;28;20222;-86
2021/08/12 08:47:51;;;;;;;9.77;8.85;;;24.80;68.60;;;;;;5041472;28;20208;-87
2021/08/12 08:50:18;;;;;;;9.68;8.77;;;24.90;69.50;;;;;;5041415;28;20282;-85
2021/08/12 08:52:48;;;;;;;9.18;8.02;;;25.00;69.40;;;;;;5041930;28;20643;-85
2021/08/12 08:55:20;;;;;;;8.73;7.90;;;24.90;69.80;;;;;;5041428;28;20285;-86
2021/08/12 08:57:58;;;;;;;11.13;8.77;;;25.10;69.10;;;;;;5041790;28;20211;-84
2021/08/12 09:00:25;;;;;;;14.02;8.88;;;25.20;68.70;;;;;;5042415;28;20192;-86
2021/08/12 09:02:53;;;;;;;9.60;8.32;;;25.20;68.40;;;;;;5040015;28;20173;-85
2021/08/12 09:05:20;;;;;;;11.48;8.73;;;25.40;67.70;;;;;;5041514;28;20217;-84
2021/08/12 09:07:47;;;;;;;9.65;8.70;;;25.20;68.30;;;;;;5041596;28;20208;-86
2021/08/12 09:10:15;;;;;;;9.82;8.82;;;25.30;67.80;;;;;;5041079;28;20193;-86
2021/08/12 09:12:45;;;;;;;9.73;8.82;;;25.40;68.40;;;;;;5042923;28;20185;-86
2021/08/12 09:15:30;;;;;;;9.00;8.10;;;25.40;67.50;;;;;;5043554;28;20272;-86
2021/08/12 09:17:58;;;;;;;18.25;9.30;;;25.50;66.10;;;;;;5041099;28;20557;-87
2021/08/12 09:20:26;;;;;;;9.75;8.85;;;25.50;66.30;;;;;;5040153;28;20189;-87
2021/08/12 09:22:54;;;;;;;10.63;9.23;;;25.50;65.20;;;;;;5040334;28;20181;-86
2021/08/12 09:25:41;;;;;;;9.65;8.73;;;25.60;65.10;;;;;;5042029;28;20214;-87
2021/08/12 09:28:29;;;;;;;8.65;7.95;;;25.60;63.10;;;;;;5039447;28;20192;-86
2021/08/12 09:30:58;;;;;;;9.75;9.00;;;25.80;62.50;;;;;;5039456;28;20209;-87
2021/08/12 09:33:25;;;;;;;9.55;8.80;;;26.10;60.90;;;;;;5044384;28;20232;-87
2021/08/12 09:35:51;;;;;;;9.70;8.75;;;26.10;61.80;;;;;;5042165;28;20727;-86
2021/08/12 09:38:17;;;;;;;9.95;8.73;;;26.10;60.50;;;;;;5042252;28;20212;-87
2021/08/12 09:40:48;;;;;;;9.10;8.30;;;26.20;60.80;;;;;;5042981;28;20231;-86
2021/08/12 09:43:14;;;;;;;11.82;8.70;;;26.40;60.80;;;;;;5041058;28;20181;-83
2021/08/12 09:45:41;;;;;;;9.48;8.65;;;26.60;60.40;;;;;;5038148;28;20195;-86
2021/08/12 09:48:13;;;;;;;8.85;8.13;;;26.80;60.00;;;;;;5038456;28;20197;-87
2021/08/12 09:50:40;;;;;;;8.38;7.60;;;27.10;60.10;;;;;;5038294;28;20213;-86
2021/08/12 09:53:07;;;;;;;8.73;8.02;;;27.30;58.80;;;;;;5042499;28;20188;-85
2021/08/12 09:55:38;;;;;;;8.65;7.95;;;27.40;57.70;;;;;;5042108;28;20209;-86
2021/08/12 09:58:11;;;;;;;9.85;8.95;;;27.30;58.10;;;;;;5041506;28;20572;-85
2021/08/12 10:00:47;;;;;;;9.25;8.45;;;27.40;57.20;;;;;;5041834;28;20224;-86
2021/08/12 10:03:32;;;;;;;8.88;8.07;;;27.70;56.90;;;;;;5042161;28;20216;-86
2021/08/12 10:06:04;;;;;;;8.82;8.05;;;27.70;56.90;;;;;;5040762;28;20199;-87
2021/08/12 10:08:32;;;;;;;8.35;7.63;;;27.50;58.20;;;;;;5042518;28;20323;-87
2021/08/12 10:11:24;;;;;;;8.43;7.72;;;27.60;57.30;;;;;;5041671;28;20635;-87
2021/08/12 10:14:01;;;;;;;8.80;8.02;;;28.20;56.40;;;;;;5039542;28;20189;-87
2021/08/12 10:16:32;;;;;;;8.70;7.90;;;28.20;55.30;;;;;;5041964;28;20185;-87
2021/08/12 10:18:59;;;;;;;9.55;8.63;;;28.30;52.60;;;;;;5041533;28;20205;-86
2021/08/12 10:21:26;;;;;;;8.48;7.30;;;28.20;51.70;;;;;;5041111;28;20699;-86
2021/08/12 10:23:56;;;;;;;8.52;7.82;;;28.40;52.80;;;;;;5041985;28;20409;-86
2021/08/12 10:26:26;;;;;;;8.90;8.18;;;28.60;51.30;;;;;;5049871;28;20185;-86
2021/08/12 10:28:58;;;;;;;8.38;7.63;;;28.50;51.50;;;;;;5046766;28;20189;-87
2021/08/12 10:31:28;;;;;;;8.88;8.18;;;28.50;51.60;;;;;;5041839;28;20264;-87
2021/08/12 10:33:56;;;;;;;8.10;7.45;;;28.80;50.70;;;;;;5041184;28;20191;-87
2021/08/12 10:36:22;;;;;;;9.90;8.10;;;28.70;50.60;;;;;;5041890;28;20525;-86
2021/08/12 10:38:49;;;;;;;8.75;7.70;;;29.20;51.00;;;;;;5041599;28;20213;-85
2021/08/12 10:41:16;;;;;;;10.25;7.82;;;29.30;49.60;;;;;;5041435;28;20228;-86
2021/08/12 10:43:45;;;;;;;9.23;8.43;;;29.50;48.70;;;;;;5041325;28;20189;-88
2021/08/12 10:46:11;;;;;;;11.25;9.70;;;29.60;48.10;;;;;;5041736;28;20181;-85
2021/08/12 10:48:37;;;;;;;9.73;8.88;;;29.70;49.90;;;;;;5040362;28;20718;-86
2021/08/12 10:51:11;;;;;;;9.73;8.82;;;29.80;48.60;;;;;;5041411;28;20201;-86
2021/08/12 10:53:38;;;;;;;10.05;8.95;;;30.00;48.40;;;;;;5040659;28;20220;-86
2021/08/12 10:56:13;;;;;;;9.07;8.27;;;30.20;49.40;;;;;;5039992;28;20196;-86
2021/08/12 10:58:43;;;;;;;9.93;8.95;;;30.00;49.50;;;;;;5039538;28;20215;-86
2021/08/12 11:01:26;;;;;;;20.45;9.95;;;30.20;49.50;;;;;;5031493;28;20231;-86
2021/08/12 11:03:53;;;;;;;12.02;9.32;;;30.30;48.90;;;;;;5039343;28;20188;-86
2021/08/12 11:06:33;;;;;;;9.75;8.80;;;30.40;48.40;;;;;;5041088;28;20173;-86
2021/08/12 11:09:01;;;;;;;9.55;8.68;;;30.50;47.90;;;;;;5039356;28;20185;-85
2021/08/12 11:11:30;;;;;;;10.23;9.43;;;30.60;47.10;;;;;;5039304;28;20212;-85
2021/08/12 11:13:57;;;;;;;13.02;8.82;;;30.40;48.20;;;;;;5038010;28;20199;-86
2021/08/12 11:16:25;;;;;;;10.70;9.43;;;30.30;48.80;;;;;;5039573;28;20267;-86
2021/08/12 11:18:52;;;;;;;9.85;8.93;;;30.30;49.30;;;;;;5039415;28;20243;-86
2021/08/12 11:21:30;;;;;;;11.23;9.00;;;30.50;49.00;;;;;;5040566;28;20197;-86
2021/08/12 11:24:06;;;;;;;10.23;9.25;;;30.60;47.20;;;;;;5039889;28;20215;-86
2021/08/12 11:26:40;;;;;;;10.40;8.00;;;30.90;45.60;;;;;;5040574;28;20184;-86
2021/08/12 11:29:06;;;;;;;13.20;9.32;;;31.10;46.40;;;;;;5039439;28;20188;-86
2021/08/12 11:31:32;;;;;;;11.52;8.75;;;31.20;48.60;;;;;;5039326;28;20247;-85
2021/08/12 11:34:00;;;;;;;11.00;9.75;;;31.50;48.80;;;;;;5038520;28;20193;-86
2021/08/12 11:36:34;;;;;;;10.05;9.25;;;31.50;47.40;;;;;;5038547;28;20196;-86
2021/08/12 11:39:08;;;;;;;9.93;8.98;;;31.60;48.90;;;;;;5037493;28;20766;-85
2021/08/12 11:41:36;;;;;;;10.18;9.30;;;31.70;48.00;;;;;;5039485;28;20220;-85
2021/08/12 11:44:02;;;;;;;9.68;8.63;;;31.60;47.50;;;;;;5045636;28;20211;-86
2021/08/12 11:46:28;;;;;;;10.02;9.02;;;31.70;47.80;;;;;;5026561;28;20301;-85
2021/08/12 11:48:53;;;;;;;14.00;9.63;;;31.80;46.10;;;;;;5045944;28;20185;-83
2021/08/12 11:51:19;;;;;;;10.13;9.32;;;32.10;45.50;;;;;;5045994;28;20212;-85
2021/08/12 11:53:51;;;;;;;9.93;9.10;;;32.20;44.70;;;;;;5045157;28;20181;-84
2021/08/12 11:56:26;;;;;;;11.50;9.50;;;32.50;45.50;;;;;;5045038;28;20196;-86
2021/08/12 11:58:54;;;;;;;11.23;10.40;;;32.20;45.60;;;;;;5041680;28;20264;-86
2021/08/12 12:01:25;;;;;;;9.73;8.82;;;32.30;46.00;;;;;;5046483;28;20201;-84
2021/08/12 12:04:06;;;;;;;10.25;9.43;;;32.40;46.20;;;;;;5045269;28;20181;-85
2021/08/12 12:06:44;;;;;;;12.38;8.75;;;31.80;46.40;;;;;;5041478;28;20180;-86
2021/08/12 12:09:31;;;;;;;9.88;8.98;;;31.90;45.60;;;;;;5044755;28;20248;-86
2021/08/12 12:12:02;;;;;;;10.25;9.23;;;31.90;45.40;;;;;;5043240;28;20798;-87
2021/08/12 12:14:34;;;;;;;9.52;8.60;;;32.20;44.30;;;;;;5041360;28;20220;-85
2021/08/12 12:17:21;;;;;;;9.77;8.85;;;32.60;43.60;;;;;;5042150;28;20219;-84
2021/08/12 12:20:12;;;;;;;11.98;10.98;;;32.90;42.30;;;;;;5029767;28;20188;-84
2021/08/12 12:22:42;;;;;;;9.93;8.93;;;33.40;41.20;;;;;;5041179;28;20201;-86
2021/08/12 12:25:11;;;;;;;9.63;8.82;;;33.30;41.60;;;;;;5044695;28;20188;-84
2021/08/12 12:27:37;;;;;;;9.75;8.95;;;33.20;40.70;;;;;;5045599;28;20201;-86
2021/08/12 12:30:11;;;;;;;10.48;9.43;;;33.30;41.20;;;;;;5045444;28;20268;-84
2021/08/12 12:32:42;;;;;;;28.13;11.30;;;33.20;40.60;;;;;;5045950;28;20591;-85
2021/08/12 12:35:09;;;;;;;14.07;10.35;;;33.50;40.30;;;;;;5045626;28;20279;-84
2021/08/12 12:37:41;;;;;;;9.63;8.73;;;33.90;39.30;;;;;;5044711;28;20192;-84
2021/08/12 12:40:17;;;;;;;9.38;8.65;;;33.70;41.00;;;;;;5046789;28;20189;-84
2021/08/12 12:42:43;;;;;;;10.38;9.52;;;33.70;40.20;;;;;;5045497;28;20184;-84
2021/08/12 12:45:12;;;;;;;9.90;9.13;;;33.70;39.90;;;;;;5042334;28;20189;-85
2021/08/12 12:47:39;;;;;;;10.98;9.45;;;33.90;39.60;;;;;;5041972;28;20220;-84
2021/08/12 12:50:14;;;;;;;10.43;9.60;;;33.90;39.20;;;;;;5044022;28;20180;-84